createdAt,value
2019-04-30T00:00:55.489Z,12.91
2019-04-30T00:01:58.877Z,12.90
2019-04-30T00:02:55.329Z,12.90
2019-04-30T00:03:59.245Z,12.87
2019-04-30T00:04:55.429Z,12.86
2019-04-30T00:05:57.355Z,12.87
2019-04-30T00:06:55.663Z,12.86
2019-04-30T00:07:58.494Z,12.88
2019-04-30T00:08:57.586Z,12.87
2019-04-30T00:09:57.602Z,12.87
2019-04-30T00:10:55.557Z,12.88
2019-04-30T00:11:59.957Z,12.89
2019-04-30T00:12:56.220Z,12.91
2019-04-30T00:13:58.716Z,12.91
2019-04-30T00:14:55.202Z,12.92
2019-04-30T00:15:58.784Z,12.93
2019-04-30T00:16:56.187Z,12.95
2019-04-30T00:18:00.290Z,12.95
2019-04-30T00:19:00.506Z,12.96
2019-04-30T00:19:59.823Z,12.96
2019-04-30T00:20:55.461Z,13.00
2019-04-30T00:22:00.057Z,12.99
2019-04-30T00:22:56.135Z,13.00
2019-04-30T00:23:56.094Z,13.00
2019-04-30T00:24:55.617Z,13.01
2019-04-30T00:25:58.355Z,13.02
2019-04-30T00:26:56.069Z,13.02
2019-04-30T00:27:55.928Z,13.02
2019-04-30T00:28:55.425Z,13.02
2019-04-30T00:29:55.770Z,13.01
2019-04-30T00:30:56.264Z,13.01
2019-04-30T00:31:57.727Z,13.02
2019-04-30T00:32:56.004Z,13.02
2019-04-30T00:33:57.858Z,13.03
2019-04-30T00:34:57.724Z,13.02
2019-04-30T00:35:57.879Z,13.03
2019-04-30T00:36:56.015Z,13.04
2019-04-30T00:37:57.583Z,13.03
2019-04-30T00:38:55.939Z,13.03
2019-04-30T00:39:55.546Z,13.02
2019-04-30T00:40:55.798Z,13.03
2019-04-30T00:41:56.638Z,13.04
2019-04-30T00:42:55.942Z,13.03
2019-04-30T00:43:55.884Z,13.03
2019-04-30T00:44:55.287Z,13.02
2019-04-30T00:45:55.233Z,13.01
2019-04-30T00:46:55.882Z,13.01
2019-04-30T00:47:55.957Z,13.01
2019-04-30T00:48:56.763Z,13.01
2019-04-30T00:49:57.564Z,12.99
2019-04-30T00:50:55.768Z,12.97
2019-04-30T00:51:58.123Z,12.96
2019-04-30T00:52:55.512Z,12.94
2019-04-30T00:53:55.766Z,12.92
2019-04-30T00:54:55.308Z,12.92
2019-04-30T00:55:57.053Z,12.91
2019-04-30T00:56:57.452Z,12.91
2019-04-30T00:57:55.864Z,12.90
2019-04-30T00:58:57.389Z,12.88
2019-04-30T00:59:54.958Z,12.88
2019-04-30T01:00:55.473Z,12.87
2019-04-30T01:01:56.326Z,12.86
2019-04-30T01:02:55.571Z,12.85
2019-04-30T01:03:55.847Z,12.85
2019-04-30T01:04:58.286Z,12.83
2019-04-30T01:05:55.645Z,12.81
2019-04-30T01:06:59.894Z,12.83
2019-04-30T01:07:55.624Z,12.81
2019-04-30T01:09:00.093Z,12.81
2019-04-30T01:09:55.614Z,12.80
2019-04-30T01:10:55.636Z,12.81
2019-04-30T01:11:55.257Z,12.81
2019-04-30T01:12:54.570Z,12.82
2019-04-30T01:13:54.559Z,12.82
2019-04-30T01:14:54.548Z,12.81
2019-04-30T01:15:54.554Z,12.82
2019-04-30T01:16:54.527Z,12.81
2019-04-30T01:17:54.517Z,12.79
2019-04-30T01:18:54.513Z,12.80
2019-04-30T01:19:54.680Z,12.78
2019-04-30T01:20:54.484Z,12.78
2019-04-30T01:21:54.483Z,12.77
2019-04-30T01:22:54.463Z,12.76
2019-04-30T01:23:54.822Z,12.74
2019-04-30T01:24:54.442Z,12.75
2019-04-30T01:25:54.430Z,12.76
2019-04-30T01:26:54.421Z,12.76
2019-04-30T01:27:54.480Z,12.75
2019-04-30T01:29:00.585Z,12.75
2019-04-30T01:29:55.388Z,12.76
2019-04-30T01:31:00.319Z,12.76
2019-04-30T01:31:55.366Z,12.76
2019-04-30T01:32:56.819Z,12.76
2019-04-30T01:33:54.357Z,12.75
2019-04-30T01:34:54.334Z,12.74
2019-04-30T01:35:54.332Z,12.72
2019-04-30T01:36:54.310Z,12.69
2019-04-30T01:37:54.300Z,12.68
2019-04-30T01:38:54.298Z,12.66
2019-04-30T01:39:54.288Z,12.63
2019-04-30T01:40:54.267Z,12.62
2019-04-30T01:41:54.256Z,12.58
2019-04-30T01:42:54.246Z,12.59
2019-04-30T01:43:54.237Z,12.57
2019-04-30T01:44:54.224Z,12.56
2019-04-30T01:45:54.230Z,12.56
2019-04-30T01:46:54.209Z,12.55
2019-04-30T01:47:54.190Z,12.56
2019-04-30T01:48:54.180Z,12.55
2019-04-30T01:49:55.902Z,12.55
2019-04-30T01:50:55.168Z,12.55
2019-04-30T01:51:57.318Z,12.55
2019-04-30T01:52:54.137Z,12.54
2019-04-30T01:53:54.125Z,12.53
2019-04-30T01:54:54.117Z,12.52
2019-04-30T01:55:54.106Z,12.50
2019-04-30T01:56:54.103Z,12.48
2019-04-30T01:57:54.081Z,12.48
2019-04-30T01:58:54.070Z,12.46
2019-04-30T01:59:54.059Z,12.43
2019-04-30T02:00:54.048Z,12.42
2019-04-30T02:01:54.039Z,12.40
2019-04-30T02:02:54.048Z,12.37
2019-04-30T02:03:54.016Z,12.36
2019-04-30T02:04:54.009Z,12.36
2019-04-30T02:05:53.995Z,12.35
2019-04-30T02:06:53.983Z,12.33
2019-04-30T02:07:53.972Z,12.31
2019-04-30T02:08:53.971Z,12.31
2019-04-30T02:09:53.950Z,12.30
2019-04-30T02:10:53.940Z,12.28
2019-04-30T02:11:53.929Z,12.28
2019-04-30T02:12:53.918Z,12.27
2019-04-30T02:13:53.907Z,12.27
2019-04-30T02:14:53.908Z,12.27
2019-04-30T02:15:53.886Z,12.27
2019-04-30T02:16:53.875Z,12.25
2019-04-30T02:17:53.864Z,12.26
2019-04-30T02:18:53.854Z,12.25
2019-04-30T02:19:56.777Z,12.23
2019-04-30T02:20:53.844Z,12.23
2019-04-30T02:21:53.822Z,12.23
2019-04-30T02:22:53.810Z,12.24
2019-04-30T02:23:53.799Z,12.24
2019-04-30T02:24:53.787Z,12.24
2019-04-30T02:25:53.778Z,12.26
2019-04-30T02:26:53.777Z,12.26
2019-04-30T02:27:53.755Z,12.27
2019-04-30T02:28:53.751Z,12.29
2019-04-30T02:29:53.735Z,12.28
2019-04-30T02:30:53.725Z,12.30
2019-04-30T02:31:53.714Z,12.30
2019-04-30T02:32:53.716Z,12.32
2019-04-30T02:33:53.693Z,12.33
2019-04-30T02:34:53.682Z,12.35
2019-04-30T02:35:53.671Z,12.37
2019-04-30T02:36:53.660Z,12.38
2019-04-30T02:37:53.651Z,12.39
2019-04-30T02:38:53.654Z,12.38
2019-04-30T02:39:53.636Z,12.38
2019-04-30T02:40:53.619Z,12.39
2019-04-30T02:41:53.606Z,12.38
2019-04-30T02:42:53.595Z,12.39
2019-04-30T02:43:53.590Z,12.40
2019-04-30T02:44:53.605Z,12.42
2019-04-30T02:45:53.563Z,12.41
2019-04-30T02:46:53.552Z,12.42
2019-04-30T02:47:53.540Z,12.42
2019-04-30T02:48:53.537Z,12.42
2019-04-30T02:49:53.609Z,12.42
2019-04-30T02:50:53.525Z,12.42
2019-04-30T02:51:53.498Z,12.42
2019-04-30T02:52:53.486Z,12.43
2019-04-30T02:53:53.475Z,12.41
2019-04-30T02:54:53.484Z,12.41
2019-04-30T02:55:53.454Z,12.42
2019-04-30T02:56:53.453Z,12.43
2019-04-30T02:57:53.440Z,12.44
2019-04-30T02:58:53.420Z,12.45
2019-04-30T02:59:53.413Z,12.47
2019-04-30T03:00:53.404Z,12.45
2019-04-30T03:01:53.391Z,12.48
2019-04-30T03:02:53.390Z,12.50
2019-04-30T03:03:53.367Z,12.50
2019-04-30T03:04:53.358Z,12.52
2019-04-30T03:05:53.350Z,12.54
2019-04-30T03:06:53.333Z,12.55
2019-04-30T03:07:53.674Z,12.56
2019-04-30T03:08:53.322Z,12.56
2019-04-30T03:09:53.300Z,12.57
2019-04-30T03:10:53.291Z,12.57
2019-04-30T03:11:53.277Z,12.58
2019-04-30T03:12:53.267Z,12.59
2019-04-30T03:13:53.256Z,12.59
2019-04-30T03:14:53.263Z,12.60
2019-04-30T03:15:53.237Z,12.62
2019-04-30T03:16:53.510Z,12.63
2019-04-30T03:17:53.235Z,12.63
2019-04-30T03:18:53.208Z,12.64
2019-04-30T03:19:53.203Z,12.64
2019-04-30T03:20:53.191Z,12.65
2019-04-30T03:21:53.170Z,12.63
2019-04-30T03:22:53.160Z,12.65
2019-04-30T03:23:53.148Z,12.65
2019-04-30T03:24:53.146Z,12.63
2019-04-30T03:25:53.126Z,12.64
2019-04-30T03:26:53.135Z,12.64
2019-04-30T03:27:53.104Z,12.61
2019-04-30T03:28:53.094Z,12.59
2019-04-30T03:29:53.083Z,12.59
2019-04-30T03:30:57.947Z,12.57
2019-04-30T03:31:54.074Z,12.54
2019-04-30T03:32:56.865Z,12.51
2019-04-30T03:33:53.040Z,12.48
2019-04-30T03:34:53.065Z,12.47
2019-04-30T03:35:54.644Z,12.45
2019-04-30T03:36:53.009Z,12.42
2019-04-30T03:37:53.013Z,12.39
2019-04-30T03:38:52.986Z,12.36
2019-04-30T03:39:52.975Z,12.34
2019-04-30T03:40:52.965Z,12.32
2019-04-30T03:41:52.954Z,12.31
2019-04-30T03:42:52.942Z,12.31
2019-04-30T03:43:52.945Z,12.28
2019-04-30T03:44:52.920Z,12.28
2019-04-30T03:45:52.912Z,12.26
2019-04-30T03:46:52.900Z,12.27
2019-04-30T03:47:52.891Z,12.26
2019-04-30T03:48:52.879Z,12.27
2019-04-30T03:49:52.881Z,12.27
2019-04-30T03:50:56.653Z,12.28
2019-04-30T03:51:52.848Z,12.28
2019-04-30T03:52:52.837Z,12.27
2019-04-30T03:53:52.823Z,12.27
2019-04-30T03:54:52.811Z,12.28
2019-04-30T03:55:52.851Z,12.27
2019-04-30T03:56:52.793Z,12.25
2019-04-30T03:57:52.779Z,12.25
2019-04-30T03:58:52.769Z,12.24
2019-04-30T03:59:52.756Z,12.22
2019-04-30T04:00:52.745Z,12.21
2019-04-30T04:01:52.748Z,12.21
2019-04-30T04:02:52.725Z,12.20
2019-04-30T04:03:52.717Z,12.20
2019-04-30T04:04:52.899Z,12.18
2019-04-30T04:05:52.692Z,12.17
2019-04-30T04:06:52.681Z,12.18
2019-04-30T04:07:53.133Z,12.18
2019-04-30T04:08:52.665Z,12.18
2019-04-30T04:09:52.651Z,12.18
2019-04-30T04:10:53.036Z,12.20
2019-04-30T04:11:52.629Z,12.22
2019-04-30T04:12:52.618Z,12.22
2019-04-30T04:13:52.632Z,12.24
2019-04-30T04:14:52.596Z,12.25
2019-04-30T04:15:52.600Z,12.26
2019-04-30T04:16:52.583Z,12.27
2019-04-30T04:17:52.565Z,12.28
2019-04-30T04:18:52.557Z,12.30
2019-04-30T04:19:52.561Z,12.31
2019-04-30T04:21:07.487Z,12.33
2019-04-30T04:21:53.520Z,12.35
2019-04-30T04:22:52.509Z,12.38
2019-04-30T04:23:52.498Z,12.40
2019-04-30T04:24:52.489Z,12.43
2019-04-30T04:25:52.615Z,12.45
2019-04-30T04:26:52.466Z,12.49
2019-04-30T04:27:52.456Z,12.49
2019-04-30T04:28:52.449Z,12.51
2019-04-30T04:29:52.440Z,12.54
2019-04-30T04:30:52.428Z,12.55
2019-04-30T04:31:52.431Z,12.56
2019-04-30T04:32:52.405Z,12.55
2019-04-30T04:33:52.689Z,12.58
2019-04-30T04:34:52.387Z,12.58
2019-04-30T04:35:52.367Z,12.58
2019-04-30T04:36:52.381Z,12.59
2019-04-30T04:37:52.369Z,12.58
2019-04-30T04:38:52.339Z,12.59
2019-04-30T04:39:52.325Z,12.58
2019-04-30T04:40:52.327Z,12.58
2019-04-30T04:41:52.303Z,12.58
2019-04-30T04:42:52.300Z,12.58
2019-04-30T04:43:52.292Z,12.58
2019-04-30T04:44:52.271Z,12.59
2019-04-30T04:45:52.259Z,12.58
2019-04-30T04:46:52.252Z,12.58
2019-04-30T04:47:52.240Z,12.56
2019-04-30T04:48:52.239Z,12.57
2019-04-30T04:49:53.861Z,12.58
2019-04-30T04:50:52.205Z,12.59
2019-04-30T04:51:52.193Z,12.59
2019-04-30T04:52:52.188Z,12.59
2019-04-30T04:53:52.171Z,12.59
2019-04-30T04:54:52.163Z,12.60
2019-04-30T04:55:52.172Z,12.60
2019-04-30T04:56:54.787Z,12.60
2019-04-30T04:57:53.130Z,12.61
2019-04-30T04:58:52.126Z,12.61
2019-04-30T04:59:52.106Z,12.63
2019-04-30T05:00:52.095Z,12.63
2019-04-30T05:01:52.096Z,12.64
2019-04-30T05:02:52.073Z,12.64
2019-04-30T05:03:52.063Z,12.64
2019-04-30T05:04:52.065Z,12.64
2019-04-30T05:05:52.044Z,12.65
2019-04-30T05:06:52.030Z,12.66
2019-04-30T05:07:52.029Z,12.68
2019-04-30T05:08:52.008Z,12.70
2019-04-30T05:09:51.997Z,12.72
2019-04-30T05:10:51.985Z,12.75
2019-04-30T05:11:51.986Z,12.77
2019-04-30T05:12:51.965Z,12.81
2019-04-30T05:13:51.964Z,12.85
2019-04-30T05:14:51.941Z,12.87
2019-04-30T05:15:51.945Z,12.90
2019-04-30T05:16:51.921Z,12.89
2019-04-30T05:17:51.909Z,12.91
2019-04-30T05:18:51.909Z,12.91
2019-04-30T05:19:51.897Z,12.92
2019-04-30T05:20:51.881Z,12.93
2019-04-30T05:21:51.864Z,12.94
2019-04-30T05:22:51.860Z,12.91
2019-04-30T05:23:51.844Z,12.89
2019-04-30T05:24:51.836Z,12.89
2019-04-30T05:25:51.832Z,12.90
2019-04-30T05:26:51.815Z,12.90
2019-04-30T05:27:51.807Z,12.92
2019-04-30T05:28:52.971Z,12.92
2019-04-30T05:29:51.778Z,12.91
2019-04-30T05:30:51.769Z,12.88
2019-04-30T05:31:51.766Z,12.88
2019-04-30T05:32:51.748Z,12.88
2019-04-30T05:33:51.737Z,12.90
2019-04-30T05:34:51.724Z,12.91
2019-04-30T05:35:51.717Z,12.92
2019-04-30T05:36:51.703Z,12.94
2019-04-30T05:37:51.702Z,12.96
2019-04-30T05:38:51.679Z,12.99
2019-04-30T05:39:51.673Z,13.03
2019-04-30T05:40:51.657Z,13.08
2019-04-30T05:41:51.648Z,13.13
2019-04-30T05:42:51.636Z,13.20
2019-04-30T05:43:51.636Z,13.24
2019-04-30T05:44:51.615Z,13.27
2019-04-30T05:45:51.605Z,13.31
2019-04-30T05:46:51.593Z,13.34
2019-04-30T05:47:51.582Z,13.36
2019-04-30T05:48:51.571Z,13.37
2019-04-30T05:49:51.582Z,13.37
2019-04-30T05:50:51.855Z,13.33
2019-04-30T05:51:55.359Z,13.30
2019-04-30T05:52:51.530Z,13.26
2019-04-30T05:53:51.518Z,13.24
2019-04-30T05:54:51.506Z,13.22
2019-04-30T05:55:51.506Z,13.22
2019-04-30T05:56:51.485Z,13.26
2019-04-30T05:57:55.860Z,13.28
2019-04-30T05:58:52.469Z,13.31
2019-04-30T05:59:51.455Z,13.32
2019-04-30T06:00:51.443Z,13.33
2019-04-30T06:01:51.458Z,13.32
2019-04-30T06:02:51.431Z,13.30
2019-04-30T06:03:51.411Z,13.29
2019-04-30T06:04:51.400Z,13.29
2019-04-30T06:05:51.389Z,13.28
2019-04-30T06:06:51.378Z,13.30
2019-04-30T06:07:52.082Z,13.36
2019-04-30T06:08:51.359Z,13.40
2019-04-30T06:09:51.346Z,13.44
2019-04-30T06:10:51.826Z,13.50
2019-04-30T06:11:51.324Z,13.55
2019-04-30T06:12:51.313Z,13.59
2019-04-30T06:13:51.312Z,13.62
2019-04-30T06:14:51.841Z,13.67
2019-04-30T06:15:51.280Z,13.70
2019-04-30T06:16:51.773Z,13.73
2019-04-30T06:17:59.997Z,13.76
2019-04-30T06:18:52.270Z,13.80
2019-04-30T06:19:51.697Z,13.83
2019-04-30T06:20:51.226Z,13.88
2019-04-30T06:21:51.223Z,13.97
2019-04-30T06:22:52.159Z,14.10
2019-04-30T06:23:51.197Z,14.27
2019-04-30T06:24:51.199Z,14.45
2019-04-30T06:25:57.258Z,14.63
2019-04-30T06:26:52.163Z,14.78
2019-04-30T06:27:51.154Z,14.89
2019-04-30T06:28:51.144Z,14.93
2019-04-30T06:29:51.130Z,14.97
2019-04-30T06:30:51.132Z,14.99
2019-04-30T06:31:51.113Z,15.00
2019-04-30T06:32:51.099Z,15.00
2019-04-30T06:33:51.091Z,15.09
2019-04-30T06:34:51.079Z,15.17
2019-04-30T06:35:51.092Z,15.24
2019-04-30T06:36:53.793Z,15.26
2019-04-30T06:37:51.047Z,15.30
2019-04-30T06:38:51.036Z,15.36
2019-04-30T06:39:51.025Z,15.46
2019-04-30T06:40:51.015Z,15.54
2019-04-30T06:41:51.003Z,15.50
2019-04-30T06:42:51.003Z,15.46
2019-04-30T06:43:50.981Z,15.47
2019-04-30T06:44:50.971Z,15.60
2019-04-30T06:45:51.251Z,15.73
2019-04-30T06:46:50.953Z,15.80
2019-04-30T06:47:50.939Z,15.85
2019-04-30T06:48:51.097Z,15.93
2019-04-30T06:49:50.917Z,16.02
2019-04-30T06:50:50.905Z,16.12
2019-04-30T06:51:50.894Z,16.29
2019-04-30T06:52:58.396Z,16.46
2019-04-30T06:53:51.883Z,16.63
2019-04-30T06:54:50.868Z,17.03
2019-04-30T06:55:50.853Z,17.03
2019-04-30T06:56:50.841Z,16.98
2019-04-30T06:57:50.830Z,16.91
2019-04-30T06:58:52.573Z,16.81
2019-04-30T06:59:51.585Z,16.68
2019-04-30T07:00:50.798Z,16.54
2019-04-30T07:01:50.787Z,16.48
2019-04-30T07:02:50.779Z,16.50
2019-04-30T07:03:50.767Z,16.57
2019-04-30T07:04:50.778Z,16.71
2019-04-30T07:05:50.755Z,16.95
2019-04-30T07:06:50.734Z,17.25
2019-04-30T07:07:53.295Z,17.21
2019-04-30T07:08:55.697Z,17.13
2019-04-30T07:09:55.941Z,17.08
2019-04-30T07:10:55.644Z,17.05
2019-04-30T07:11:51.725Z,17.08
2019-04-30T07:12:50.669Z,17.11
2019-04-30T07:13:52.130Z,17.24
2019-04-30T07:14:50.649Z,17.34
2019-04-30T07:15:50.638Z,17.45
2019-04-30T07:16:50.644Z,17.52
2019-04-30T07:17:50.617Z,17.55
2019-04-30T07:18:50.622Z,17.56
2019-04-30T07:19:56.347Z,17.59
2019-04-30T07:20:51.584Z,17.56
2019-04-30T07:21:50.574Z,17.47
2019-04-30T07:22:58.846Z,17.39
2019-04-30T07:23:51.554Z,17.25
2019-04-30T07:24:50.633Z,17.09
2019-04-30T07:25:51.706Z,16.94
2019-04-30T07:26:54.707Z,16.89
2019-04-30T07:27:51.523Z,16.81
2019-04-30T07:28:54.830Z,16.77
2019-04-30T07:29:50.491Z,16.77
2019-04-30T07:31:07.191Z,16.86
2019-04-30T07:31:51.768Z,17.03
2019-04-30T07:32:50.461Z,17.22
2019-04-30T07:33:53.569Z,17.38
2019-04-30T07:34:50.437Z,17.51
2019-04-30T07:35:50.426Z,17.63
2019-04-30T07:37:10.376Z,17.79
2019-04-30T07:37:54.676Z,18.04
2019-04-30T07:38:56.139Z,18.42
2019-04-30T07:39:51.383Z,18.99
2019-04-30T07:40:50.372Z,19.31
2019-04-30T07:41:50.361Z,19.72
2019-04-30T07:42:50.350Z,20.76
2019-04-30T07:43:50.340Z,22.36
2019-04-30T07:44:50.433Z,23.44
2019-04-30T07:45:50.317Z,25.29
2019-04-30T07:46:50.307Z,26.08
2019-04-30T07:47:50.296Z,27.42
2019-04-30T07:48:50.420Z,27.53
2019-04-30T07:49:55.087Z,28.58
2019-04-30T07:50:52.266Z,29.86
2019-04-30T07:51:51.935Z,30.70
2019-04-30T07:53:01.651Z,29.51
2019-04-30T07:53:51.231Z,30.25
2019-04-30T07:54:51.906Z,30.05
2019-04-30T07:55:50.217Z,30.00
2019-04-30T07:56:50.838Z,29.61
2019-04-30T07:57:50.796Z,29.69
2019-04-30T07:58:50.555Z,29.27
2019-04-30T07:59:50.168Z,28.14
2019-04-30T08:00:53.331Z,28.18
2019-04-30T08:02:06.414Z,29.10
2019-04-30T08:02:51.137Z,30.18
2019-04-30T08:03:50.689Z,31.24
2019-04-30T08:04:51.110Z,32.02
2019-04-30T08:05:50.204Z,32.44
2019-04-30T08:06:50.163Z,31.34
2019-04-30T08:07:50.124Z,29.58
2019-04-30T08:08:50.649Z,28.19
2019-04-30T08:09:50.060Z,26.99
2019-04-30T08:10:51.028Z,26.03
2019-04-30T08:11:50.039Z,25.26
2019-04-30T08:12:50.982Z,24.65
2019-04-30T08:13:50.678Z,24.23
2019-04-30T08:14:50.016Z,25.77
2019-04-30T08:15:49.999Z,26.04
2019-04-30T08:16:51.084Z,26.03
2019-04-30T08:18:02.314Z,25.56
2019-04-30T08:18:51.268Z,25.02
2019-04-30T08:19:49.954Z,24.68
2019-04-30T08:20:49.947Z,24.54
2019-04-30T08:21:49.931Z,24.84
2019-04-30T08:22:49.920Z,25.42
2019-04-30T08:23:49.909Z,27.56
2019-04-30T08:24:49.912Z,28.84
2019-04-30T08:25:49.890Z,29.67
2019-04-30T08:26:49.878Z,30.26
2019-04-30T08:27:49.866Z,30.76
2019-04-30T08:28:49.857Z,31.22
2019-04-30T08:29:50.120Z,31.46
2019-04-30T08:30:49.846Z,31.69
2019-04-30T08:31:49.827Z,31.96
2019-04-30T08:32:50.095Z,32.23
2019-04-30T08:33:49.803Z,32.60
2019-04-30T08:34:50.196Z,32.87
2019-04-30T08:35:50.109Z,32.82
2019-04-30T08:36:49.782Z,32.63
2019-04-30T08:37:49.882Z,32.51
2019-04-30T08:38:49.748Z,32.71
2019-04-30T08:39:49.888Z,32.82
2019-04-30T08:40:56.036Z,32.80
2019-04-30T08:41:50.730Z,32.75
2019-04-30T08:42:49.796Z,32.65
2019-04-30T08:43:49.853Z,32.48
2019-04-30T08:44:49.684Z,32.63
2019-04-30T08:45:49.674Z,32.55
2019-04-30T08:46:49.662Z,32.28
2019-04-30T08:47:49.662Z,32.22
2019-04-30T08:48:51.765Z,32.16
2019-04-30T08:49:50.285Z,32.05
2019-04-30T08:50:50.153Z,31.86
2019-04-30T08:51:50.054Z,31.62
2019-04-30T08:52:50.043Z,31.38
2019-04-30T08:53:49.597Z,31.16
2019-04-30T08:54:49.754Z,30.95
2019-04-30T08:55:49.565Z,30.76
2019-04-30T08:56:50.394Z,30.62
2019-04-30T08:57:50.123Z,30.58
2019-04-30T08:58:49.532Z,30.50
2019-04-30T08:59:49.603Z,30.35
2019-04-30T09:00:49.516Z,30.22
2019-04-30T09:01:49.505Z,30.11
2019-04-30T09:02:49.488Z,30.05
2019-04-30T09:03:51.393Z,30.09
2019-04-30T09:04:49.553Z,30.17
2019-04-30T09:05:49.968Z,30.27
2019-04-30T09:06:49.671Z,30.38
2019-04-30T09:07:49.434Z,30.45
2019-04-30T09:08:49.424Z,30.51
2019-04-30T09:09:49.413Z,30.54
2019-04-30T09:10:49.403Z,30.63
2019-04-30T09:11:55.176Z,30.78
2019-04-30T09:12:52.038Z,30.96
2019-04-30T09:13:49.371Z,31.16
2019-04-30T09:14:49.359Z,31.24
2019-04-30T09:15:49.365Z,31.28
2019-04-30T09:16:51.267Z,31.19
2019-04-30T09:18:00.714Z,31.12
2019-04-30T09:18:50.316Z,31.11
2019-04-30T09:19:49.307Z,31.15
2019-04-30T09:20:49.601Z,31.21
2019-04-30T09:21:49.287Z,31.30
2019-04-30T09:22:49.703Z,31.29
2019-04-30T09:23:52.367Z,31.27
2019-04-30T09:24:49.814Z,31.34
2019-04-30T09:25:49.809Z,31.43
2019-04-30T09:26:49.398Z,31.49
2019-04-30T09:27:49.224Z,31.47
2019-04-30T09:28:49.532Z,31.45
2019-04-30T09:29:49.422Z,31.52
2019-04-30T09:30:49.190Z,31.60
2019-04-30T09:31:49.377Z,31.70
2019-04-30T09:32:49.943Z,31.76
2019-04-30T09:33:49.389Z,31.84
2019-04-30T09:34:49.147Z,31.90
2019-04-30T09:35:49.630Z,31.94
2019-04-30T09:36:49.163Z,31.94
2019-04-30T09:37:49.632Z,31.93
2019-04-30T09:38:49.102Z,31.87
2019-04-30T09:39:49.598Z,31.72
2019-04-30T09:40:50.701Z,31.59
2019-04-30T09:41:49.563Z,31.51
2019-04-30T09:42:49.059Z,31.53
2019-04-30T09:43:49.465Z,31.57
2019-04-30T09:44:49.392Z,31.64
2019-04-30T09:45:49.700Z,31.74
2019-04-30T09:46:49.057Z,31.85
2019-04-30T09:47:50.583Z,31.92
2019-04-30T09:48:50.834Z,31.99
2019-04-30T09:49:49.512Z,32.06
2019-04-30T09:50:49.912Z,32.20
2019-04-30T09:51:49.822Z,32.33
2019-04-30T09:52:49.682Z,32.47
2019-04-30T09:53:56.788Z,32.64
2019-04-30T09:54:50.882Z,32.75
2019-04-30T09:55:49.599Z,32.77
2019-04-30T09:56:49.671Z,32.71
2019-04-30T09:57:49.004Z,32.74
2019-04-30T09:58:49.312Z,32.81
2019-04-30T09:59:48.894Z,32.87
2019-04-30T10:00:50.335Z,32.99
2019-04-30T10:01:48.858Z,33.17
2019-04-30T10:02:49.011Z,33.35
2019-04-30T10:03:50.402Z,33.45
2019-04-30T10:04:49.343Z,33.54
2019-04-30T10:05:49.190Z,33.58
2019-04-30T10:06:50.136Z,33.51
2019-04-30T10:07:49.327Z,33.39
2019-04-30T10:08:51.227Z,33.33
2019-04-30T10:09:50.855Z,33.39
2019-04-30T10:10:48.764Z,33.56
2019-04-30T10:11:50.126Z,33.81
2019-04-30T10:12:49.294Z,34.10
2019-04-30T10:13:48.741Z,34.43
2019-04-30T10:14:49.547Z,34.73
2019-04-30T10:15:50.177Z,35.05
2019-04-30T10:16:49.514Z,35.36
2019-04-30T10:17:48.705Z,35.72
2019-04-30T10:18:48.682Z,36.09
2019-04-30T10:19:49.240Z,36.45
2019-04-30T10:20:48.655Z,36.75
2019-04-30T10:21:49.048Z,37.09
2019-04-30T10:22:49.533Z,37.48
2019-04-30T10:23:49.911Z,37.84
2019-04-30T10:24:49.467Z,38.19
2019-04-30T10:25:48.607Z,38.54
2019-04-30T10:26:48.591Z,38.95
2019-04-30T10:27:49.769Z,39.35
2019-04-30T10:28:48.571Z,39.54
2019-04-30T10:29:49.303Z,39.59
2019-04-30T10:30:48.550Z,39.62
2019-04-30T10:31:49.023Z,39.37
2019-04-30T10:32:50.048Z,38.98
2019-04-30T10:33:48.657Z,37.14
2019-04-30T10:34:48.507Z,37.54
2019-04-30T10:35:49.599Z,37.54
2019-04-30T10:36:49.542Z,37.35
2019-04-30T10:37:48.603Z,37.07
2019-04-30T10:38:49.398Z,36.64
2019-04-30T10:39:49.090Z,35.78
2019-04-30T10:40:48.817Z,34.52
2019-04-30T10:41:48.445Z,32.85
2019-04-30T10:42:48.954Z,31.04
2019-04-30T10:43:49.253Z,29.38
2019-04-30T10:44:48.399Z,28.06
2019-04-30T10:45:48.644Z,27.13
2019-04-30T10:46:48.377Z,26.44
2019-04-30T10:47:49.244Z,25.87
2019-04-30T10:48:48.357Z,25.57
2019-04-30T10:49:48.726Z,25.32
2019-04-30T10:50:49.197Z,25.13
2019-04-30T10:51:48.323Z,25.01
2019-04-30T10:52:49.145Z,24.88
2019-04-30T10:53:48.608Z,24.72
2019-04-30T10:54:49.657Z,24.57
2019-04-30T10:55:48.669Z,24.42
2019-04-30T10:56:48.989Z,24.31
2019-04-30T10:57:49.535Z,24.25
2019-04-30T10:58:48.249Z,24.16
2019-04-30T10:59:48.728Z,24.07
2019-04-30T11:00:49.847Z,24.01
2019-04-30T11:01:49.266Z,23.92
2019-04-30T11:02:49.670Z,23.82
2019-04-30T11:03:48.198Z,23.75
2019-04-30T11:04:48.186Z,23.69
2019-04-30T11:05:48.790Z,23.63
2019-04-30T11:06:48.165Z,23.58
2019-04-30T11:07:49.497Z,23.53
2019-04-30T11:08:48.143Z,23.50
2019-04-30T11:09:49.331Z,23.45
2019-04-30T11:10:48.123Z,23.45
2019-04-30T11:11:49.696Z,23.48
2019-04-30T11:12:48.101Z,23.55
2019-04-30T11:13:48.090Z,23.55
2019-04-30T11:14:48.085Z,23.57
2019-04-30T11:15:49.179Z,23.49
2019-04-30T11:16:51.271Z,23.39
2019-04-30T11:17:49.605Z,23.32
2019-04-30T11:18:48.274Z,23.18
2019-04-30T11:19:49.270Z,23.06
2019-04-30T11:20:49.776Z,23.01
2019-04-30T11:21:48.244Z,22.93
2019-04-30T11:22:48.190Z,22.86
2019-04-30T11:23:49.501Z,22.80
2019-04-30T11:24:58.318Z,22.76
2019-04-30T11:25:51.104Z,22.73
2019-04-30T11:26:50.024Z,22.72
2019-04-30T11:27:50.173Z,22.73
2019-04-30T11:28:48.135Z,22.75
2019-04-30T11:29:49.455Z,22.77
2019-04-30T11:30:48.146Z,22.81
2019-04-30T11:31:48.151Z,22.86
2019-04-30T11:32:48.187Z,22.93
2019-04-30T11:33:48.262Z,22.99
2019-04-30T11:34:47.866Z,23.01
2019-04-30T11:35:56.555Z,23.03
2019-04-30T11:36:48.840Z,23.03
2019-04-30T11:37:47.831Z,23.03
2019-04-30T11:38:48.733Z,23.04
2019-04-30T11:39:47.807Z,23.04
2019-04-30T11:40:48.602Z,23.04
2019-04-30T11:41:47.798Z,23.03
2019-04-30T11:42:47.777Z,23.03
2019-04-30T11:43:49.573Z,23.04
2019-04-30T11:44:48.810Z,23.04
2019-04-30T11:45:47.744Z,23.04
2019-04-30T11:46:49.449Z,23.03
2019-04-30T11:47:53.591Z,23.02
2019-04-30T11:48:49.048Z,23.01
2019-04-30T11:49:47.699Z,22.99
2019-04-30T11:50:49.561Z,22.97
2019-04-30T11:51:47.677Z,22.92
2019-04-30T11:52:47.667Z,22.89
2019-04-30T11:53:49.007Z,22.86
2019-04-30T11:54:51.642Z,22.84
2019-04-30T11:55:49.232Z,22.83
2019-04-30T11:56:50.253Z,22.83
2019-04-30T11:57:49.420Z,22.82
2019-04-30T11:58:48.938Z,22.80
2019-04-30T11:59:47.621Z,22.80
2019-04-30T12:00:49.338Z,22.82
2019-04-30T12:01:47.568Z,22.85
2019-04-30T12:02:52.483Z,22.91
2019-04-30T12:03:49.771Z,22.97
2019-04-30T12:04:49.339Z,23.03
2019-04-30T12:05:49.157Z,23.03
2019-04-30T12:06:47.514Z,23.00
2019-04-30T12:07:48.304Z,22.98
2019-04-30T12:08:49.146Z,22.95
2019-04-30T12:09:48.493Z,22.94
2019-04-30T12:10:47.470Z,22.92
2019-04-30T12:11:50.554Z,22.89
2019-04-30T12:12:48.698Z,22.85
2019-04-30T12:13:47.439Z,22.80
2019-04-30T12:14:49.324Z,22.76
2019-04-30T12:15:50.043Z,22.73
2019-04-30T12:16:47.405Z,22.69
2019-04-30T12:17:47.412Z,22.68
2019-04-30T12:18:47.384Z,22.63
2019-04-30T12:19:48.835Z,22.61
2019-04-30T12:20:47.362Z,22.59
2019-04-30T12:21:47.352Z,22.61
2019-04-30T12:22:49.202Z,22.62
2019-04-30T12:23:47.340Z,22.63
2019-04-30T12:24:48.863Z,22.62
2019-04-30T12:25:49.252Z,22.57
2019-04-30T12:26:48.913Z,22.55
2019-04-30T12:27:48.825Z,22.56
2019-04-30T12:28:47.280Z,22.58
2019-04-30T12:29:49.460Z,22.60
2019-04-30T12:30:48.932Z,22.62
2019-04-30T12:31:47.242Z,22.63
2019-04-30T12:32:49.221Z,22.59
2019-04-30T12:33:47.220Z,22.50
2019-04-30T12:34:47.210Z,22.39
2019-04-30T12:35:51.039Z,22.34
2019-04-30T12:36:47.190Z,22.30
2019-04-30T12:37:49.062Z,22.29
2019-04-30T12:38:47.165Z,22.27
2019-04-30T12:39:47.154Z,22.28
2019-04-30T12:40:47.143Z,22.28
2019-04-30T12:41:48.819Z,22.22
2019-04-30T12:42:48.671Z,22.14
2019-04-30T12:43:47.112Z,22.08
2019-04-30T12:44:47.100Z,22.01
2019-04-30T12:45:52.619Z,21.91
2019-04-30T12:46:48.645Z,21.83
2019-04-30T12:47:47.070Z,21.74
2019-04-30T12:48:47.059Z,21.70
2019-04-30T12:49:47.048Z,21.69
2019-04-30T12:50:49.027Z,21.69
2019-04-30T12:51:48.868Z,21.69
2019-04-30T12:52:47.026Z,21.70